createdAt,value
2022-09-10T00:00:28.440Z,30.30
2022-09-10T00:02:58.707Z,30.30
2022-09-10T00:05:31.529Z,30.20
2022-09-10T00:08:01.121Z,30.30
2022-09-10T00:10:30.809Z,30.30
2022-09-10T00:13:02.002Z,30.10
2022-09-10T00:15:33.380Z,30.20
2022-09-10T00:18:04.140Z,30.10
2022-09-10T00:20:35.314Z,30.10
2022-09-10T00:23:07.956Z,30.10
2022-09-10T00:25:40.285Z,30.00
2022-09-10T00:28:11.711Z,29.90
2022-09-10T00:30:46.914Z,29.90
2022-09-10T00:33:18.430Z,29.80
2022-09-10T00:35:51.976Z,29.80
2022-09-10T00:38:22.305Z,29.80
2022-09-10T00:40:54.527Z,29.70
2022-09-10T00:43:27.834Z,29.70
2022-09-10T00:45:59.607Z,29.70
2022-09-10T00:48:35.412Z,29.60
2022-09-10T00:51:07.533Z,29.60
2022-09-10T00:53:39.058Z,29.50
2022-09-10T00:56:10.025Z,29.50
2022-09-10T00:58:40.308Z,29.40
2022-09-10T01:01:12.354Z,29.40
2022-09-10T01:03:46.176Z,29.30
2022-09-10T01:06:17.155Z,29.20
2022-09-10T01:08:47.631Z,29.20
2022-09-10T01:11:22.211Z,29.20
2022-09-10T01:14:14.051Z,29.20
2022-09-10T01:17:24.383Z,29.20
2022-09-10T01:20:26.209Z,29.10
2022-09-10T01:23:35.051Z,29.00
2022-09-10T01:26:42.452Z,29.00
2022-09-10T01:29:38.086Z,29.00
2022-09-10T01:32:23.715Z,29.00
2022-09-10T01:35:21.736Z,28.90
2022-09-10T01:37:56.769Z,28.80
2022-09-10T01:40:31.041Z,28.80
2022-09-10T01:43:13.814Z,28.80
2022-09-10T01:46:07.529Z,28.70
2022-09-10T01:49:16.705Z,28.70
2022-09-10T01:52:39.603Z,28.60
2022-09-10T01:55:24.200Z,28.60
2022-09-10T01:58:14.631Z,28.60
2022-09-10T02:01:18.273Z,28.60
2022-09-10T02:03:55.054Z,28.50
2022-09-10T02:06:30.984Z,28.50
2022-09-10T02:09:05.529Z,28.40
2022-09-10T02:11:53.759Z,28.30
2022-09-10T02:14:41.755Z,28.30
2022-09-10T02:17:26.526Z,28.30
2022-09-10T02:19:58.716Z,28.30
2022-09-10T02:22:30.416Z,28.20
2022-09-10T02:25:01.182Z,28.20
2022-09-10T02:27:35.916Z,28.20
2022-09-10T02:30:08.808Z,28.10
2022-09-10T02:32:42.050Z,28.10
2022-09-10T02:35:11.969Z,28.10
2022-09-10T02:37:44.547Z,28.10
2022-09-10T02:40:17.422Z,28.10
2022-09-10T02:42:49.356Z,28.10
2022-09-10T02:45:26.664Z,28.00
2022-09-10T02:47:58.724Z,28.00
2022-09-10T02:50:32.824Z,28.00
2022-09-10T02:53:06.566Z,28.00
2022-09-10T02:55:39.060Z,27.90
2022-09-10T02:58:10.979Z,27.90
2022-09-10T03:00:46.916Z,27.90
2022-09-10T03:03:18.650Z,27.80
2022-09-10T03:05:53.717Z,27.80
2022-09-10T03:08:24.691Z,27.80
2022-09-10T03:11:01.256Z,27.60
2022-09-10T03:13:30.841Z,27.60
2022-09-10T03:16:06.018Z,27.70
2022-09-10T03:18:36.634Z,27.70
2022-09-10T03:21:23.421Z,27.70
2022-09-10T03:23:57.531Z,27.60
2022-09-10T03:26:31.151Z,27.60
2022-09-10T03:29:05.707Z,27.60
2022-09-10T03:31:41.003Z,27.50
2022-09-10T03:34:14.221Z,27.50
2022-09-10T03:36:53.300Z,27.50
2022-09-10T03:39:23.259Z,27.50
2022-09-10T03:41:54.593Z,27.50
2022-09-10T03:44:31.269Z,27.50
2022-09-10T03:47:07.530Z,27.50
2022-09-10T03:49:39.074Z,27.40
2022-09-10T03:52:14.880Z,27.40
2022-09-10T03:54:47.380Z,27.30
2022-09-10T03:57:18.834Z,27.30
2022-09-10T03:59:52.849Z,27.30
2022-09-10T04:02:22.955Z,27.20
2022-09-10T04:04:59.621Z,27.20
2022-09-10T04:07:31.978Z,27.20
2022-09-10T04:10:02.621Z,27.20
2022-09-10T04:12:39.445Z,27.20
2022-09-10T04:15:13.295Z,27.20
2022-09-10T04:17:44.817Z,27.20
2022-09-10T04:20:15.723Z,27.20
2022-09-10T04:22:47.793Z,27.20
2022-09-10T04:25:21.378Z,27.10
2022-09-10T04:27:52.993Z,27.10
2022-09-10T04:30:24.847Z,27.10
2022-09-10T04:32:59.552Z,27.00
2022-09-10T04:35:32.927Z,27.00
2022-09-10T04:38:06.650Z,27.00
2022-09-10T04:40:39.985Z,27.00
2022-09-10T04:43:14.489Z,26.90
2022-09-10T04:45:47.350Z,27.00
2022-09-10T04:48:17.626Z,27.00
2022-09-10T04:51:12.248Z,26.90
2022-09-10T04:53:43.954Z,27.00
2022-09-10T04:56:16.305Z,27.00
2022-09-10T04:58:47.012Z,26.90
2022-09-10T05:01:18.718Z,26.90
2022-09-10T05:03:53.765Z,26.90
2022-09-10T05:06:24.151Z,26.90
2022-09-10T05:08:55.950Z,26.90
2022-09-10T05:11:29.597Z,26.90
2022-09-10T05:14:03.794Z,26.90
2022-09-10T05:16:35.452Z,26.90
2022-09-10T05:19:07.522Z,26.80
2022-09-10T05:21:47.782Z,26.80
2022-09-10T05:24:19.404Z,26.70
2022-09-10T05:26:52.172Z,26.70
2022-09-10T05:29:26.233Z,26.70
2022-09-10T05:31:58.829Z,26.60
2022-09-10T05:34:30.398Z,26.60
2022-09-10T05:37:01.803Z,26.60
2022-09-10T05:39:33.727Z,26.60
2022-09-10T05:42:06.229Z,26.50
2022-09-10T05:44:39.899Z,26.50
2022-09-10T05:47:12.135Z,26.40
2022-09-10T05:49:43.520Z,26.30
2022-09-10T05:52:14.420Z,26.20
2022-09-10T05:54:45.666Z,26.10
2022-09-10T05:57:16.678Z,26.10
2022-09-10T05:59:48.096Z,26.00
2022-09-10T06:02:24.138Z,26.00
2022-09-10T06:04:56.536Z,26.10
2022-09-10T06:07:28.747Z,26.00
2022-09-10T06:10:02.291Z,26.10
2022-09-10T06:12:52.763Z,26.10
2022-09-10T06:15:26.347Z,26.10
2022-09-10T06:17:58.889Z,25.90
2022-09-10T06:20:34.030Z,25.80
2022-09-10T06:23:07.093Z,25.70
2022-09-10T06:25:41.002Z,25.70
2022-09-10T06:28:14.037Z,25.80
2022-09-10T06:30:44.495Z,25.80
2022-09-10T06:33:18.932Z,25.90
2022-09-10T06:36:00.144Z,25.80
2022-09-10T06:38:34.752Z,25.60
2022-09-10T06:41:07.314Z,25.60
2022-09-10T06:43:43.222Z,25.50
2022-09-10T06:47:03.140Z,25.40
2022-09-10T06:49:27.710Z,25.50
2022-09-10T06:51:59.409Z,25.70
2022-09-10T06:54:29.784Z,25.70
2022-09-10T06:57:12.106Z,25.70
2022-09-10T06:59:43.607Z,25.70
2022-09-10T07:02:17.486Z,25.70
2022-09-10T07:04:49.786Z,25.60
2022-09-10T07:07:22.561Z,25.60
2022-09-10T07:09:56.659Z,25.50
2022-09-10T07:12:28.724Z,25.50
2022-09-10T07:15:01.977Z,25.40
2022-09-10T07:17:38.081Z,25.40
2022-09-10T07:20:10.179Z,25.40
2022-09-10T07:22:47.292Z,25.30
2022-09-10T07:25:20.655Z,25.10
2022-09-10T07:28:20.532Z,25.10
2022-09-10T07:30:51.319Z,25.10
2022-09-10T07:33:23.994Z,25.00
2022-09-10T07:35:56.045Z,25.00
2022-09-10T07:38:25.828Z,24.90
2022-09-10T07:41:00.826Z,24.90
2022-09-10T07:43:31.095Z,24.90
2022-09-10T07:46:04.388Z,24.90
2022-09-10T07:48:40.343Z,24.90
2022-09-10T07:51:13.050Z,24.90
2022-09-10T07:53:50.423Z,24.80
2022-09-10T07:56:25.662Z,24.90
2022-09-10T07:58:58.371Z,25.00
2022-09-10T08:01:33.340Z,25.00
2022-09-10T08:04:07.687Z,25.00
2022-09-10T08:06:43.053Z,25.00
2022-09-10T08:09:16.092Z,25.10
2022-09-10T08:11:54.302Z,25.10
2022-09-10T08:14:27.310Z,25.10
2022-09-10T08:17:03.041Z,25.20
2022-09-10T08:19:38.030Z,25.20
2022-09-10T08:22:13.460Z,25.30
2022-09-10T08:24:51.844Z,25.30
2022-09-10T08:27:21.924Z,25.30
2022-09-10T08:29:53.320Z,25.10
2022-09-10T08:32:25.252Z,25.10
2022-09-10T08:34:59.095Z,25.10
2022-09-10T08:37:32.083Z,25.10
2022-09-10T08:40:03.998Z,25.00
2022-09-10T08:42:44.244Z,25.10
2022-09-10T08:45:26.851Z,25.10
2022-09-10T08:48:04.949Z,25.10
2022-09-10T08:50:57.171Z,25.00
2022-09-10T08:54:08.777Z,24.90
2022-09-10T08:56:42.671Z,24.90
2022-09-10T08:59:34.787Z,24.90
2022-09-10T09:02:48.195Z,24.80
2022-09-10T09:05:29.298Z,24.80
2022-09-10T09:08:02.109Z,24.90
2022-09-10T09:10:47.365Z,24.80
2022-09-10T09:13:20.649Z,24.90
2022-09-10T09:16:09.281Z,25.00
2022-09-10T09:18:52.309Z,25.00
2022-09-10T09:21:55.832Z,24.90
2022-09-10T09:24:57.109Z,24.90
2022-09-10T09:27:36.399Z,25.00
2022-09-10T09:30:08.868Z,24.90
2022-09-10T09:32:47.888Z,24.90
2022-09-10T09:35:30.179Z,24.90
2022-09-10T09:38:27.511Z,24.90
2022-09-10T09:41:08.067Z,24.90
2022-09-10T09:44:01.209Z,24.90
2022-09-10T09:46:32.241Z,24.80
2022-09-10T09:49:07.564Z,24.80
2022-09-10T09:51:42.012Z,24.80
2022-09-10T09:57:21.435Z,24.80
2022-09-10T09:59:55.861Z,24.60
2022-09-10T10:02:27.821Z,24.60
2022-09-10T10:05:27.010Z,24.60
2022-09-10T10:07:57.364Z,24.60
2022-09-10T10:10:30.853Z,24.70
2022-09-10T10:13:03.937Z,24.70
2022-09-10T10:15:45.990Z,24.50
2022-09-10T10:18:25.543Z,24.50
2022-09-10T10:21:21.147Z,24.50
2022-09-10T10:23:51.474Z,24.50
2022-09-10T10:26:33.743Z,24.40
2022-09-10T10:29:20.850Z,24.50
2022-09-10T10:31:54.859Z,24.50
2022-09-10T10:34:55.879Z,24.50
2022-09-10T10:37:35.768Z,24.50
2022-09-10T10:40:06.185Z,24.40
2022-09-10T10:42:41.600Z,24.30
2022-09-10T10:45:35.146Z,24.30
2022-09-10T10:48:27.727Z,24.40
2022-09-10T10:51:19.521Z,24.40
2022-09-10T10:53:55.750Z,24.40
2022-09-10T10:56:53.007Z,24.50
2022-09-10T10:59:52.283Z,24.50
2022-09-10T11:02:40.959Z,24.50
2022-09-10T11:05:44.376Z,24.50
2022-09-10T11:08:51.643Z,24.50
2022-09-10T11:11:36.632Z,24.50
2022-09-10T11:14:46.768Z,24.50
2022-09-10T11:17:28.397Z,24.40
2022-09-10T11:20:27.069Z,24.30
2022-09-10T11:23:25.568Z,24.30
2022-09-10T11:26:26.441Z,24.30
2022-09-10T11:29:21.480Z,24.50
2022-09-10T11:32:01.461Z,24.50
2022-09-10T11:34:50.803Z,24.50
2022-09-10T11:37:41.481Z,24.50
2022-09-10T11:40:41.049Z,24.30
2022-09-10T11:43:41.095Z,24.30
2022-09-10T11:46:18.999Z,24.10
2022-09-10T11:49:05.022Z,24.00
2022-09-10T11:51:44.367Z,23.90
2022-09-10T11:54:29.696Z,23.80
2022-09-10T11:57:12.167Z,23.80
2022-09-10T12:00:13.002Z,23.70
2022-09-10T12:03:01.462Z,23.80
2022-09-10T12:05:34.261Z,23.80
2022-09-10T12:08:30.867Z,23.70
2022-09-10T12:11:20.372Z,23.70
2022-09-10T12:13:51.909Z,23.70
2022-09-10T12:16:59.889Z,23.70
2022-09-10T12:19:35.681Z,23.60
2022-09-10T12:22:21.028Z,23.70
2022-09-10T12:25:08.983Z,23.80
2022-09-10T12:27:51.232Z,23.80
2022-09-10T12:30:29.851Z,23.90
2022-09-10T12:33:25.811Z,23.90
2022-09-10T12:35:56.896Z,23.80
2022-09-10T12:38:52.159Z,23.70
2022-09-10T12:41:22.858Z,23.80
2022-09-10T12:44:03.114Z,23.70
2022-09-10T12:46:36.191Z,23.80
2022-09-10T12:49:14.872Z,23.70
2022-09-10T12:52:00.892Z,23.90
2022-09-10T12:54:57.061Z,23.90
2022-09-10T12:57:35.451Z,23.90
2022-09-10T13:00:27.856Z,23.90
2022-09-10T13:03:17.086Z,23.90
2022-09-10T13:05:49.049Z,24.00
2022-09-10T13:08:22.700Z,24.00
2022-09-10T13:11:00.265Z,24.10
2022-09-10T13:14:00.592Z,24.10
2022-09-10T13:16:32.469Z,24.20
2022-09-10T13:19:23.515Z,24.30
2022-09-10T13:21:58.350Z,24.50
2022-09-10T13:24:58.496Z,24.50
2022-09-10T13:27:43.035Z,24.60
2022-09-10T13:30:22.160Z,24.70
2022-09-10T13:32:53.715Z,24.70
2022-09-10T13:35:53.600Z,24.70
2022-09-10T13:38:29.027Z,24.70
2022-09-10T13:41:31.703Z,24.70
2022-09-10T13:44:20.014Z,24.70
2022-09-10T13:47:03.548Z,24.80
2022-09-10T13:50:01.496Z,24.80
2022-09-10T13:52:37.694Z,24.90
2022-09-10T13:55:09.744Z,24.80
2022-09-10T13:57:47.248Z,24.90
2022-09-10T14:00:27.128Z,25.00
2022-09-10T14:03:02.287Z,25.00
2022-09-10T14:06:12.813Z,25.00
2022-09-10T14:08:51.848Z,25.00
2022-09-10T14:11:26.004Z,25.00
2022-09-10T14:14:07.290Z,25.10
2022-09-10T14:16:44.264Z,25.10
2022-09-10T14:19:29.843Z,25.10
2022-09-10T14:22:00.891Z,25.10
2022-09-10T14:24:40.920Z,25.20
2022-09-10T14:27:33.470Z,25.30
2022-09-10T14:30:26.184Z,25.20
2022-09-10T14:32:56.632Z,25.20
2022-09-10T14:35:48.225Z,25.30
2022-09-10T14:38:42.441Z,25.40
2022-09-10T14:41:32.537Z,25.60
2022-09-10T14:44:21.827Z,25.60
2022-09-10T14:46:59.677Z,25.80
2022-09-10T14:49:42.603Z,25.60
2022-09-10T14:52:13.867Z,25.70
2022-09-10T14:54:44.163Z,25.70
2022-09-10T14:57:18.151Z,25.80
2022-09-10T14:59:53.092Z,25.90
2022-09-10T15:02:31.944Z,26.00
2022-09-10T15:05:01.751Z,26.10
2022-09-10T15:07:33.588Z,26.20
2022-09-10T15:10:05.635Z,26.40
2022-09-10T15:12:40.304Z,26.40
2022-09-10T15:15:19.389Z,26.40
2022-09-10T15:17:53.305Z,26.30
2022-09-10T15:20:25.883Z,26.30
2022-09-10T15:22:58.211Z,26.40
2022-09-10T15:25:38.416Z,26.30
2022-09-10T15:28:10.353Z,26.30
2022-09-10T15:30:43.462Z,26.50
2022-09-10T15:33:18.526Z,26.50
2022-09-10T15:35:49.926Z,26.40
2022-09-10T15:38:22.687Z,26.40
2022-09-10T15:40:55.253Z,26.50
2022-09-10T15:43:28.026Z,26.60
2022-09-10T15:46:03.317Z,26.70
2022-09-10T15:48:34.656Z,26.90
2022-09-10T15:51:18.461Z,26.80
2022-09-10T15:53:50.610Z,26.60
2022-09-10T15:56:21.609Z,26.50
2022-09-10T15:58:58.533Z,26.60
2022-09-10T16:01:32.305Z,26.70
2022-09-10T16:04:04.248Z,26.90
2022-09-10T16:06:39.099Z,27.00
2022-09-10T16:09:14.854Z,27.30
2022-09-10T16:11:46.784Z,27.20
2022-09-10T16:14:20.467Z,27.00
2022-09-10T16:16:50.762Z,26.90
2022-09-10T16:19:22.271Z,27.10
2022-09-10T16:21:54.325Z,27.30
2022-09-10T16:24:31.118Z,27.30
2022-09-10T16:27:02.850Z,27.30
2022-09-10T16:29:33.980Z,27.40
2022-09-10T16:32:04.105Z,27.50
2022-09-10T16:34:37.793Z,27.70
2022-09-10T16:37:08.752Z,27.80
2022-09-10T16:39:43.544Z,27.60
2022-09-10T16:42:14.734Z,27.80
2022-09-10T16:44:46.210Z,27.80
2022-09-10T16:47:19.724Z,27.60
2022-09-10T16:49:50.838Z,27.60
2022-09-10T16:52:20.774Z,27.60
2022-09-10T16:54:54.007Z,27.70
2022-09-10T16:57:31.805Z,27.90
2022-09-10T17:00:02.583Z,28.10
2022-09-10T17:02:36.504Z,28.20
2022-09-10T17:05:07.452Z,28.20
2022-09-10T17:07:37.716Z,28.20
2022-09-10T17:10:12.379Z,28.20
2022-09-10T17:12:42.321Z,28.30
2022-09-10T17:15:15.367Z,28.30
2022-09-10T17:17:45.313Z,28.30
2022-09-10T17:20:15.733Z,28.40
2022-09-10T17:22:47.053Z,28.40
2022-09-10T17:25:18.423Z,28.70
2022-09-10T17:27:48.714Z,28.70
2022-09-10T17:30:20.164Z,28.70
2022-09-10T17:32:52.343Z,28.70
2022-09-10T17:35:26.453Z,28.90
2022-09-10T17:38:00.233Z,28.90
2022-09-10T17:40:31.181Z,29.00
2022-09-10T17:43:01.368Z,29.30
2022-09-10T17:45:31.316Z,29.30
2022-09-10T17:48:05.502Z,29.30
2022-09-10T17:50:37.976Z,29.20
2022-09-10T17:53:09.570Z,29.40
2022-09-10T17:55:40.989Z,29.40
2022-09-10T17:58:13.698Z,29.20
2022-09-10T18:00:50.891Z,29.10
2022-09-10T18:03:22.152Z,29.10
2022-09-10T18:05:53.790Z,29.00
2022-09-10T18:08:25.623Z,29.10
2022-09-10T18:11:09.476Z,29.10
2022-09-10T18:13:40.493Z,28.90
2022-09-10T18:16:14.463Z,28.90
2022-09-10T18:18:46.982Z,29.10
2022-09-10T18:21:25.586Z,29.20
2022-09-10T18:24:08.020Z,29.20
2022-09-10T18:26:40.775Z,29.10
2022-09-10T18:29:19.918Z,29.00
2022-09-10T18:31:57.548Z,29.10
2022-09-10T18:34:30.221Z,29.20
2022-09-10T18:37:04.235Z,29.40
2022-09-10T18:39:36.291Z,29.30
2022-09-10T18:42:07.510Z,29.30
2022-09-10T18:44:39.265Z,29.30
2022-09-10T18:47:33.999Z,29.40
2022-09-10T18:50:04.350Z,29.60
2022-09-10T18:52:37.076Z,29.70
2022-09-10T18:55:09.739Z,29.80
2022-09-10T18:57:44.919Z,30.00
2022-09-10T19:00:17.285Z,29.90
2022-09-10T19:02:47.165Z,29.70
2022-09-10T19:05:23.719Z,29.80
2022-09-10T19:07:53.837Z,30.00
2022-09-10T19:10:24.442Z,29.90
2022-09-10T19:12:54.972Z,30.10
2022-09-10T19:15:25.184Z,29.80
2022-09-10T19:17:55.233Z,30.00
2022-09-10T19:20:27.570Z,30.10
2022-09-10T19:22:59.767Z,30.00
2022-09-10T19:25:31.463Z,30.20
2022-09-10T19:28:01.547Z,30.20
2022-09-10T19:30:35.820Z,30.40
2022-09-10T19:33:07.277Z,30.60
2022-09-10T19:35:41.833Z,30.50
2022-09-10T19:38:36.221Z,30.60
2022-09-10T19:41:22.678Z,30.60
2022-09-10T19:43:57.739Z,30.70
2022-09-10T19:46:31.638Z,30.80
2022-09-10T19:49:02.779Z,30.60
2022-09-10T19:51:39.308Z,30.50
2022-09-10T19:54:11.355Z,30.30
2022-09-10T19:56:43.373Z,30.20
2022-09-10T19:59:14.325Z,30.00
2022-09-10T20:01:47.768Z,30.30
2022-09-10T20:04:19.795Z,30.20
2022-09-10T20:06:54.721Z,30.30
2022-09-10T20:09:25.865Z,30.50
2022-09-10T20:11:56.940Z,30.50
2022-09-10T20:14:27.536Z,30.40
2022-09-10T20:16:58.372Z,30.50
2022-09-10T20:19:29.092Z,30.60
2022-09-10T20:22:01.055Z,30.80
2022-09-10T20:24:32.827Z,30.70
2022-09-10T20:27:03.706Z,30.60
2022-09-10T20:29:38.182Z,30.60
2022-09-10T20:32:08.054Z,30.40
2022-09-10T20:34:39.121Z,30.60
2022-09-10T20:37:09.447Z,30.70
2022-09-10T20:39:43.175Z,30.70
2022-09-10T20:42:14.289Z,30.70
2022-09-10T20:44:47.341Z,30.80
2022-09-10T20:47:17.779Z,30.90
2022-09-10T20:49:54.612Z,31.00
2022-09-10T20:52:27.125Z,30.90
2022-09-10T20:54:58.048Z,30.90
2022-09-10T20:57:30.834Z,30.90
2022-09-10T21:00:02.418Z,30.90
2022-09-10T21:02:33.479Z,31.00
2022-09-10T21:05:07.172Z,30.90
2022-09-10T21:07:38.229Z,31.00
2022-09-10T21:10:08.425Z,31.00
2022-09-10T21:12:38.289Z,31.10
2022-09-10T21:15:10.368Z,31.20
2022-09-10T21:17:41.803Z,30.90
2022-09-10T21:20:15.998Z,30.90
2022-09-10T21:22:47.237Z,31.10
2022-09-10T21:25:22.181Z,31.20
2022-09-10T21:27:52.295Z,31.20
2022-09-10T21:30:22.377Z,31.20
2022-09-10T21:32:52.221Z,31.10
2022-09-10T21:35:25.107Z,31.20
2022-09-10T21:37:56.291Z,31.30
2022-09-10T21:40:28.411Z,31.30
2022-09-10T21:43:00.528Z,31.50
2022-09-10T21:45:30.809Z,31.50
2022-09-10T21:48:01.478Z,31.30
2022-09-10T21:50:31.349Z,31.20
2022-09-10T21:53:03.405Z,31.30
2022-09-10T21:55:33.814Z,31.30
2022-09-10T21:58:04.164Z,31.40
2022-09-10T22:00:37.135Z,31.20
2022-09-10T22:03:08.130Z,31.30
2022-09-10T22:05:39.429Z,31.40
2022-09-10T22:08:10.536Z,31.40
2022-09-10T22:10:45.170Z,31.40
2022-09-10T22:13:15.675Z,31.50
2022-09-10T22:15:48.361Z,31.50
2022-09-10T22:18:19.313Z,31.40
2022-09-10T22:20:51.016Z,31.30
2022-09-10T22:23:21.877Z,31.10
2022-09-10T22:25:56.671Z,31.10
2022-09-10T22:28:26.388Z,31.10
2022-09-10T22:30:58.883Z,31.00
2022-09-10T22:33:31.334Z,31.00
2022-09-10T22:36:27.654Z,31.00
2022-09-10T22:39:01.453Z,31.00
2022-09-10T22:41:34.288Z,31.00
2022-09-10T22:44:08.161Z,31.00
2022-09-10T22:46:40.849Z,31.10
2022-09-10T22:49:11.684Z,31.00
2022-09-10T22:51:43.069Z,30.90
2022-09-10T22:54:17.853Z,30.90
2022-09-10T22:56:52.435Z,30.80
2022-09-10T22:59:26.175Z,30.80
2022-09-10T23:01:56.516Z,30.80
2022-09-10T23:04:26.466Z,30.80
2022-09-10T23:06:56.679Z,30.80
2022-09-10T23:09:27.173Z,30.90
2022-09-10T23:11:59.712Z,30.90
2022-09-10T23:14:30.324Z,31.00
2022-09-10T23:17:01.291Z,30.90
2022-09-10T23:19:31.271Z,30.80
2022-09-10T23:22:02.158Z,30.70
2022-09-10T23:24:34.697Z,30.70
2022-09-10T23:27:06.228Z,30.80
2022-09-10T23:29:38.133Z,30.80
2022-09-10T23:32:08.623Z,30.70
2022-09-10T23:34:39.859Z,30.70
2022-09-10T23:37:11.441Z,30.60
2022-09-10T23:39:41.747Z,30.70
2022-09-10T23:42:12.126Z,30.80
2022-09-10T23:44:43.096Z,31.00
2022-09-10T23:47:14.070Z,31.40
2022-09-10T23:49:46.060Z,31.00
2022-09-10T23:52:17.187Z,30.80
2022-09-10T23:54:48.180Z,30.50
2022-09-10T23:57:21.131Z,30.40
2022-09-10T23:59:57.186Z,30.40
